Time;durP1;ratioP1;P1;durP2;ratioP2;P2;SDS_P1;SDS_P2;PMS_P1;PMS_P2;Temp;Humidity;BMP_temperature;BMP_pressure;BME280_temperature;BME280_humidity;BME280_pressure;Samples;Min_cycle;Max_cycle;Signal;HPM_P1;HPM_P2
2022/12/04 00:01:21;;;;;;;11.18;6.20;;;;;;;4.46;86.15;102744.50;4939258;28;20408;-80
2022/12/04 00:03:46;;;;;;;5.40;4.30;;;;;;;4.39;85.60;102725.63;4939835;28;20062;-80
2022/12/04 00:06:16;;;;;;;17.33;5.78;;;;;;;4.27;86.57;102725.50;4939586;28;20100;-80
2022/12/04 00:08:42;;;;;;;6.03;3.38;;;;;;;4.39;86.78;102746.13;4939381;28;20027;-80
2022/12/04 00:11:08;;;;;;;4.85;4.07;;;;;;;4.28;86.90;102733.22;4939396;28;20122;-81
2022/12/04 00:13:35;;;;;;;7.22;4.85;;;;;;;4.28;87.59;102745.16;4939524;28;20058;-80
2022/12/04 00:16:02;;;;;;;10.40;5.32;;;;;;;4.34;87.08;102742.69;4954868;28;20081;-80
2022/12/04 00:18:27;;;;;;;5.32;3.42;;;;;;;4.30;87.15;102733.22;4923732;28;20046;-80
2022/12/04 00:20:53;;;;;;;6.88;4.65;;;;;;;4.42;87.28;102741.03;4923451;28;20026;-80
2022/12/04 00:23:18;;;;;;;10.80;5.43;;;;;;;4.25;87.19;102717.81;4955072;28;20386;-80
2022/12/04 00:25:47;;;;;;;16.33;5.45;;;;;;;4.40;87.48;102745.28;4939210;28;20428;-80
2022/12/04 00:28:15;;;;;;;6.95;4.57;;;;;;;4.37;87.61;102742.69;4924257;28;20026;-80
2022/12/04 00:30:41;;;;;;;7.75;2.88;;;;;;;4.39;87.03;102738.44;4939020;28;20055;-80
2022/12/04 00:33:06;;;;;;;7.97;5.30;;;;;;;4.31;87.18;102727.25;4923257;28;20468;-80
2022/12/04 00:35:32;;;;;;;12.07;4.05;;;;;;;4.31;87.23;102728.09;4939167;28;20031;-80
2022/12/04 00:37:57;;;;;;;8.63;3.35;;;;;;;4.02;86.66;102684.25;4955061;28;20042;-81
2022/12/04 00:40:23;;;;;;;4.72;3.30;;;;;;;4.38;87.07;102744.41;4954905;28;20445;-80
2022/12/04 00:42:48;;;;;;;5.50;4.07;;;;;;;4.21;86.93;102725.44;4923005;28;20035;-80
2022/12/04 00:45:14;;;;;;;5.60;3.50;;;;;;;4.12;87.56;102709.97;4922768;28;20031;-81
2022/12/04 00:47:39;;;;;;;6.00;3.90;;;;;;;4.31;87.54;102743.47;4938696;28;20397;-81
2022/12/04 00:50:05;;;;;;;6.93;3.90;;;;;;;4.25;87.19;102734.88;4923096;28;20023;-80
2022/12/04 00:52:31;;;;;;;5.32;4.72;;;;;;;4.32;87.51;102752.03;4954809;28;20743;-80
2022/12/04 00:54:56;;;;;;;3.78;3.22;;;;;;;4.20;87.16;102723.72;4938698;28;20031;-81
2022/12/04 00:57:22;;;;;;;4.57;3.22;;;;;;;4.19;87.42;102717.75;4954776;28;20031;-80
2022/12/04 00:59:47;;;;;;;5.43;3.42;;;;;;;4.21;87.20;102716.03;4954276;28;20062;-80
2022/12/04 01:02:13;;;;;;;3.65;3.20;;;;;;;4.18;87.29;102726.25;4954696;28;20098;-80
2022/12/04 01:04:38;;;;;;;4.88;3.90;;;;;;;4.27;87.40;102740.88;4929035;28;20093;-80
2022/12/04 01:07:04;;;;;;;5.80;4.05;;;;;;;4.17;87.49;102734.81;4945038;28;20030;-80
2022/12/04 01:09:29;;;;;;;8.35;4.57;;;;;;;4.10;88.16;102727.03;4945145;28;20034;-80
2022/12/04 01:11:55;;;;;;;6.43;3.63;;;;;;;4.17;88.11;102739.06;4944912;28;20481;-81
2022/12/04 01:14:20;;;;;;;7.95;5.00;;;;;;;4.23;88.25;102736.59;4944421;28;20035;-80
2022/12/04 01:16:46;;;;;;;5.10;3.00;;;;;;;4.29;87.76;102739.19;4944907;28;20405;-80
2022/12/04 01:19:11;;;;;;;6.25;4.05;;;;;;;4.26;87.58;102732.34;4961029;28;20034;-80
2022/12/04 01:21:38;;;;;;;4.13;2.58;;;;;;;4.18;87.89;102722.84;4944806;28;20047;-80
2022/12/04 01:24:04;;;;;;;3.45;3.00;;;;;;;4.13;87.67;102721.91;4945288;28;20041;-80
2022/12/04 01:26:30;;;;;;;2.15;1.90;;;;;;;4.09;87.93;102726.16;4960646;28;20027;-80
2022/12/04 01:28:55;;;;;;;7.40;2.22;;;;;;;4.10;87.92;102716.78;4960412;28;20493;-80
2022/12/04 01:31:21;;;;;;;5.35;2.50;;;;;;;4.02;88.05;102712.41;4944593;28;20038;-80
2022/12/04 01:33:47;;;;;;;3.65;2.63;;;;;;;4.04;88.04;102727.84;4929021;28;20035;-80
2022/12/04 01:36:14;;;;;;;4.20;2.88;;;;;;;4.00;88.14;102736.31;4944747;28;20031;-80
2022/12/04 01:38:39;;;;;;;1.60;1.50;;;;;;;3.65;87.78;102682.13;4944781;28;20037;-80
2022/12/04 01:41:06;;;;;;;4.32;3.10;;;;;;;3.91;87.84;102719.13;4944895;28;20035;-80
2022/12/04 01:43:34;;;;;;;9.55;5.68;;;;;;;3.93;88.36;102727.72;4960273;28;20401;-80
2022/12/04 01:46:00;;;;;;;4.22;3.22;;;;;;;3.79;88.04;102703.63;4945285;28;20030;-80
2022/12/04 01:48:38;;;;;;;2.47;2.03;;;;;;;3.93;87.86;102734.50;4960637;28;20053;-80
2022/12/04 01:51:12;;;;;;;2.90;2.35;;;;;;;3.89;88.35;102708.00;4945436;28;20035;-81
2022/12/04 01:53:39;;;;;;;3.17;2.38;;;;;;;3.94;88.10;102711.50;4960450;28;20046;-80
2022/12/04 01:56:05;;;;;;;4.63;1.80;;;;;;;3.95;87.62;102707.22;4960547;28;20027;-81
2022/12/04 01:58:32;;;;;;;1.77;1.55;;;;;;;3.83;87.77;102707.06;4944515;28;20055;-80
2022/12/04 02:00:59;;;;;;;4.40;2.65;;;;;;;3.81;87.75;102707.06;4944627;28;20469;-80
2022/12/04 02:03:25;;;;;;;4.90;3.22;;;;;;;3.70;88.09;102701.78;4945050;28;20047;-80
2022/12/04 02:05:50;;;;;;;5.40;1.52;;;;;;;3.57;88.80;102682.03;4944770;28;20090;-81
2022/12/04 02:08:16;;;;;;;2.78;2.53;;;;;;;3.80;88.68;102712.16;4928713;28;20511;-80
2022/12/04 02:10:59;;;;;;;6.03;2.05;;;;;;;3.78;88.70;102698.47;4960535;28;20031;-80
2022/12/04 02:13:32;;;;;;;2.67;1.80;;;;;;;3.80;87.81;102707.03;4962037;28;20408;-80
2022/12/04 02:16:22;;;;;;;4.13;2.42;;;;;;;3.88;87.93;102705.44;4941371;28;20377;-80
2022/12/04 02:18:56;;;;;;;4.03;2.83;;;;;;;3.80;88.66;102692.53;4944356;28;20050;-80
2022/12/04 02:21:35;;;;;;;1.73;1.33;;;;;;;3.85;88.79;102690.03;4941278;28;20568;-81
2022/12/04 02:24:01;;;;;;;3.80;2.30;;;;;;;3.82;88.41;102713.88;4941316;28;20112;-81
2022/12/04 02:26:37;;;;;;;7.72;4.78;;;;;;;3.79;88.38;102705.31;4974498;28;20481;-81
2022/12/04 02:29:13;;;;;;;5.78;3.10;;;;;;;3.86;88.13;102704.56;4957325;28;20034;-81
2022/12/04 02:32:16;;;;;;;4.57;3.10;;;;;;;3.85;88.64;102705.41;4957874;28;20434;-81
2022/12/04 02:35:14;;;;;;;5.30;3.63;;;;;;;3.86;88.61;102702.00;4917632;28;20495;-81
2022/12/04 02:37:45;;;;;;;8.45;5.00;;;;;;;3.76;88.21;102690.78;4934407;28;21291;-81
2022/12/04 02:40:16;;;;;;;2.20;2.00;;;;;;;3.86;88.19;102702.00;4941140;28;20504;-81
2022/12/04 02:42:44;;;;;;;8.40;3.20;;;;;;;3.69;88.46;102694.09;4925488;28;20493;-81
2022/12/04 02:45:15;;;;;;;4.65;3.70;;;;;;;3.56;88.61;102677.75;4957336;28;20066;-80
2022/12/04 02:47:41;;;;;;;4.80;3.80;;;;;;;3.81;88.49;102706.19;4925366;28;20023;-81
2022/12/04 02:50:16;;;;;;;5.18;3.92;;;;;;;3.82;88.05;102705.34;4925128;28;20212;-81
2022/12/04 02:52:58;;;;;;;13.13;4.38;;;;;;;3.69;88.53;102694.97;4940998;28;20101;-81
2022/12/04 02:55:37;;;;;;;5.18;3.42;;;;;;;3.51;88.73;102665.72;4941494;28;20086;-81
2022/12/04 02:58:12;;;;;;;5.88;3.95;;;;;;;3.68;88.45;102697.50;4925221;28;20031;-81
2022/12/04 03:00:37;;;;;;;3.85;3.13;;;;;;;3.80;88.46;102704.47;4941185;28;20031;-80
2022/12/04 03:03:09;;;;;;;2.03;1.67;;;;;;;3.72;88.54;102689.00;4956570;28;20039;-81
2022/12/04 03:05:43;;;;;;;6.45;3.88;;;;;;;3.77;88.50;102686.53;4941395;28;20029;-81
2022/12/04 03:08:14;;;;;;;7.18;3.50;;;;;;;3.61;88.34;102668.41;4940404;28;20394;-82
2022/12/04 03:10:45;;;;;;;3.30;2.50;;;;;;;3.69;88.54;102697.53;4940209;28;20053;-81
2022/12/04 03:13:15;;;;;;;5.55;3.00;;;;;;;3.69;88.41;102694.09;4940354;28;20026;-81
2022/12/04 03:15:53;;;;;;;4.70;2.65;;;;;;;3.73;88.27;102699.25;4924834;28;20041;-81
2022/12/04 03:18:27;;;;;;;7.63;4.70;;;;;;;3.79;88.87;102690.81;4940104;28;20505;-81
2022/12/04 03:20:56;;;;;;;8.57;3.95;;;;;;;3.79;88.33;102690.81;4956849;28;20485;-81
2022/12/04 03:23:25;;;;;;;4.82;3.97;;;;;;;3.84;88.00;102698.56;4924603;28;20460;-81
2022/12/04 03:25:58;;;;;;;3.90;3.47;;;;;;;3.86;88.22;102707.97;4924258;28;20473;-81
2022/12/04 03:28:50;;;;;;;5.03;3.58;;;;;;;3.48;87.67;102653.75;4956467;28;20078;-81
2022/12/04 03:31:15;;;;;;;7.50;4.25;;;;;;;3.73;87.78;102704.38;4941387;28;20027;-81
2022/12/04 03:33:42;;;;;;;6.63;4.10;;;;;;;3.73;88.47;102706.94;4939873;28;20039;-81
2022/12/04 03:36:24;;;;;;;5.90;3.95;;;;;;;3.84;88.30;102698.56;4924394;28;20154;-81
2022/12/04 03:39:00;;;;;;;6.07;4.90;;;;;;;3.76;88.53;102697.63;4955775;28;20137;-82
2022/12/04 03:41:53;;;;;;;7.05;3.45;;;;;;;3.65;88.52;102682.97;4955860;28;20030;-82
2022/12/04 03:44:38;;;;;;;4.13;3.70;;;;;;;3.76;88.57;102703.59;4940666;28;20034;-81
2022/12/04 03:47:05;;;;;;;8.15;4.43;;;;;;;3.64;88.80;102691.50;4973173;28;20046;-81
2022/12/04 03:49:37;;;;;;;10.90;4.28;;;;;;;3.39;88.64;102649.38;4955927;28;20022;-80
2022/12/04 03:52:43;;;;;;;6.28;3.58;;;;;;;3.66;89.28;102694.94;4955684;28;20039;-81
2022/12/04 03:55:20;;;;;;;4.80;3.47;;;;;;;3.76;89.36;102701.03;4955634;28;20023;-81
2022/12/04 03:57:46;;;;;;;4.20;2.90;;;;;;;3.74;88.71;102713.81;4939957;28;20086;-81
2022/12/04 04:00:20;;;;;;;4.13;3.35;;;;;;;3.77;88.20;102712.13;4939654;28;20026;-81
2022/12/04 04:02:48;;;;;;;6.15;3.92;;;;;;;3.59;88.01;102689.72;4923883;28;20031;-83
2022/12/04 04:05:14;;;;;;;5.82;3.72;;;;;;;3.56;88.40;102682.84;4972545;28;20027;-81
2022/12/04 04:07:45;;;;;;;3.63;2.55;;;;;;;3.67;88.32;102711.16;4923400;28;20085;-81
2022/12/04 04:10:13;;;;;;;4.40;3.08;;;;;;;3.50;88.72;102692.16;4939518;28;20508;-81
2022/12/04 04:12:43;;;;;;;4.53;3.13;;;;;;;3.60;88.89;102715.31;4955523;28;20037;-81
2022/12/04 04:26:14;;;;;;;2.63;2.28;;;;;;;3.37;88.81;102697.09;4952221;29;20421;-81
2022/12/04 04:28:40;;;;;;;3.92;1.98;;;;;;;3.25;89.02;102666.25;4951622;29;20031;-81
2022/12/04 04:31:13;;;;;;;3.67;2.65;;;;;;;3.42;88.77;102709.94;4951950;29;20027;-80
2022/12/04 04:33:47;;;;;;;2.60;1.88;;;;;;;3.33;89.01;102699.59;4951731;29;20126;-82
2022/12/04 04:36:42;;;;;;;6.53;2.25;;;;;;;3.38;89.29;102708.19;4935478;29;20033;-81
2022/12/04 04:39:27;;;;;;;4.45;2.17;;;;;;;3.44;89.25;102708.25;4950337;28;20047;-81
2022/12/04 04:42:21;;;;;;;6.65;3.15;;;;;;;3.34;88.58;102699.63;4951580;29;20031;-81
2022/12/04 04:44:59;;;;;;;4.65;2.38;;;;;;;3.48;88.54;102730.50;4951664;29;20409;-80
2022/12/04 04:47:35;;;;;;;4.55;1.88;;;;;;;3.35;88.94;102716.69;4952698;28;20492;-80
2022/12/04 04:50:02;;;;;;;2.90;2.50;;;;;;;3.47;88.43;102733.91;4935571;29;20031;-81
2022/12/04 04:52:27;;;;;;;1.60;1.50;;;;;;;3.44;88.45;102728.72;4951406;29;20032;-81
2022/12/04 04:54:53;;;;;;;1.00;1.00;;;;;;;3.27;88.07;102691.84;4935386;29;20152;-81
2022/12/04 04:57:26;;;;;;;2.22;1.58;;;;;;;3.38;88.48;102719.28;4951545;29;20105;-81
2022/12/04 04:59:52;;;;;;;5.25;3.03;;;;;;;3.19;88.36;102686.59;4935533;29;20030;-81
2022/12/04 05:02:17;;;;;;;3.60;3.25;;;;;;;3.45;88.15;102720.25;4935322;29;20094;-82
2022/12/04 05:04:43;;;;;;;3.80;2.85;;;;;;;3.31;87.61;102701.28;4951610;29;20036;-81
2022/12/04 05:07:08;;;;;;;1.40;1.30;;;;;;;3.25;87.78;102693.53;4967557;28;20042;-81
2022/12/04 05:09:34;;;;;;;4.35;1.52;;;;;;;3.42;88.51;102731.28;4967607;28;20413;-81
2022/12/04 05:11:59;;;;;;;2.75;2.15;;;;;;;3.28;88.22;102704.66;4951480;29;20063;-81
2022/12/04 05:14:25;;;;;;;2.58;2.20;;;;;;;3.41;88.38;102718.47;4951469;29;20445;-81
2022/12/04 05:16:50;;;;;;;8.00;1.73;;;;;;;3.20;88.19;102685.78;4951273;29;20047;-81
2022/12/04 05:22:00;;;;;;;2.13;1.38;;;;;;;3.26;88.40;102720.81;4950897;29;20519;-81
2022/12/04 05:24:25;;;;;;;2.78;1.88;;;;;;;3.23;88.75;102738.66;4951182;29;20020;-82
2022/12/04 05:26:51;;;;;;;2.90;2.05;;;;;;;3.30;88.99;102735.38;4951109;29;20023;-81
2022/12/04 05:29:16;;;;;;;4.07;3.22;;;;;;;3.28;89.03;102747.28;4952428;28;20038;-81
2022/12/04 05:31:42;;;;;;;4.35;1.85;;;;;;;3.02;89.10;102699.13;4967186;28;20032;-81
2022/12/04 05:34:07;;;;;;;1.60;1.42;;;;;;;3.35;88.61;102738.88;4966897;28;20031;-82
2022/12/04 05:36:33;;;;;;;2.35;2.15;;;;;;;3.35;88.39;102751.66;4951114;29;20031;-81
2022/12/04 05:38:58;;;;;;;4.57;2.40;;;;;;;3.28;88.27;102747.28;4967364;28;20027;-81
2022/12/04 05:41:23;;;;;;;14.40;3.15;;;;;;;3.36;87.76;102755.94;4950939;29;20066;-81
2022/12/04 05:43:49;;;;;;;6.03;1.65;;;;;;;3.27;87.78;102755.78;4951113;29;20074;-81
2022/12/04 05:46:14;;;;;;;2.63;2.33;;;;;;;3.23;87.19;102751.44;4951164;29;20058;-81
2022/12/04 05:48:41;;;;;;;4.13;1.83;;;;;;;3.24;87.15;102755.72;4934588;28;20027;-81
2022/12/04 05:51:07;;;;;;;3.35;1.85;;;;;;;3.23;87.07;102748.88;4953302;29;20090;-80
2022/12/04 05:53:33;;;;;;;6.30;3.10;;;;;;;3.17;87.06;102753.09;4955009;29;20526;-80
2022/12/04 05:55:59;;;;;;;3.95;1.90;;;;;;;3.13;87.03;102742.78;4954696;29;20499;-81
2022/12/04 05:58:25;;;;;;;3.58;1.85;;;;;;;3.14;86.92;102747.06;4954679;29;20054;-81
2022/12/04 06:00:50;;;;;;;1.52;1.42;;;;;;;3.01;87.72;102740.03;4938751;29;20607;-81
2022/12/04 06:03:16;;;;;;;3.83;1.48;;;;;;;3.19;87.64;102754.81;4954128;29;20123;-81
2022/12/04 06:05:41;;;;;;;4.63;3.25;;;;;;;3.04;87.46;102735.81;4938598;29;20026;-81
2022/12/04 06:08:07;;;;;;;4.30;3.08;;;;;;;3.09;87.90;102761.47;4954566;29;20413;-81
2022/12/04 06:10:32;;;;;;;3.72;2.53;;;;;;;3.06;87.51;102741.84;4954490;29;20465;-81
2022/12/04 06:12:58;;;;;;;4.30;2.97;;;;;;;3.03;87.95;102726.44;4938402;29;20042;-81
2022/12/04 06:15:23;;;;;;;2.67;1.98;;;;;;;3.02;87.92;102739.19;4938133;29;20469;-81
2022/12/04 06:17:49;;;;;;;8.38;3.75;;;;;;;2.86;88.20;102718.50;4937830;29;20134;-81
2022/12/04 06:20:14;;;;;;;4.55;3.05;;;;;;;2.93;88.72;102739.91;4970304;28;20394;-81
2022/12/04 06:22:40;;;;;;;3.75;2.28;;;;;;;3.05;88.77;102755.47;4954239;29;20086;-81
2022/12/04 06:25:06;;;;;;;3.60;2.65;;;;;;;3.09;88.44;102757.22;4954099;29;20039;-81
2022/12/04 06:27:31;;;;;;;8.90;3.95;;;;;;;3.07;87.93;102764.03;4938116;29;20027;-81
2022/12/04 06:29:57;;;;;;;3.40;2.22;;;;;;;3.03;88.15;102757.13;4953968;29;20035;-80
2022/12/04 06:32:22;;;;;;;2.45;2.25;;;;;;;3.08;88.52;102767.44;4953769;29;20035;-81
2022/12/04 06:34:51;;;;;;;7.00;4.15;;;;;;;3.14;88.31;102776.03;4954015;29;20066;-81
2022/12/04 06:37:17;;;;;;;4.75;3.90;;;;;;;3.14;88.08;102770.06;4937885;29;20082;-81
2022/12/04 06:39:43;;;;;;;5.90;2.70;;;;;;;3.13;88.31;102764.09;4953893;29;20031;-81
2022/12/04 06:42:08;;;;;;;4.47;2.63;;;;;;;3.16;88.26;102769.28;4953716;29;20038;-81
2022/12/04 06:44:34;;;;;;;8.50;4.68;;;;;;;3.12;87.66;102758.97;4953854;29;20065;-81
2022/12/04 06:46:59;;;;;;;4.47;3.53;;;;;;;3.22;87.42;102776.16;4953577;29;20034;-82
2022/12/04 06:49:25;;;;;;;3.85;2.65;;;;;;;3.20;87.26;102762.50;4953634;29;20027;-80
2022/12/04 06:51:50;;;;;;;3.50;2.38;;;;;;;3.10;87.21;102758.09;4953739;29;20489;-81
2022/12/04 06:54:16;;;;;;;3.60;2.17;;;;;;;3.22;86.89;102765.09;4969533;28;20118;-81
2022/12/04 06:56:41;;;;;;;6.30;3.45;;;;;;;3.15;87.09;102782.91;4953177;29;20042;-82
2022/12/04 06:59:07;;;;;;;3.25;2.03;;;;;;;3.11;87.16;102763.22;4953365;29;20419;-81
2022/12/04 07:01:32;;;;;;;3.88;1.95;;;;;;;3.17;86.78;102767.59;4952622;28;20676;-82
2022/12/04 07:03:59;;;;;;;7.07;5.70;;;;;;;3.15;87.08;102765.00;4969301;28;20101;-81
2022/12/04 07:06:30;;;;;;;4.90;3.75;;;;;;;3.09;86.78;102762.34;4953530;29;20071;-80
2022/12/04 07:09:00;;;;;;;4.40;2.67;;;;;;;3.20;87.01;102775.28;4953219;29;20052;-81
2022/12/04 07:11:25;;;;;;;1.65;1.55;;;;;;;3.15;87.31;102780.34;4969348;28;20512;-81
2022/12/04 07:13:51;;;;;;;2.63;2.10;;;;;;;3.23;86.54;102771.91;4969004;28;20039;-81
2022/12/04 07:16:18;;;;;;;10.02;1.70;;;;;;;3.14;86.86;102759.84;4953645;28;20028;-81
2022/12/04 07:18:44;;;;;;;5.50;2.35;;;;;;;3.28;86.32;102783.09;4924615;28;20109;-81
2022/12/04 07:21:11;;;;;;;4.38;2.45;;;;;;;3.26;85.73;102784.78;4940447;28;20113;-81
2022/12/04 07:23:36;;;;;;;2.25;1.50;;;;;;;3.13;86.08;102781.13;4940262;28;20496;-81
2022/12/04 07:26:09;;;;;;;1.65;1.55;;;;;;;3.16;86.42;102789.75;4924269;28;20031;-81
2022/12/04 07:28:35;;;;;;;;;;;;;;;3.22;86.49;102806.88;4940547;28;20030;-81
2022/12/04 07:31:09;;;;;;;1.20;0.95;;;;;;;3.08;86.53;102793.00;4972017;28;20375;-81
2022/12/04 07:33:34;;;;;;;4.63;2.75;;;;;;;2.99;87.47;102780.94;4940631;28;20519;-81
2022/12/04 07:36:01;;;;;;;4.60;2.72;;;;;;;3.15;87.56;102803.38;4924293;28;20058;-82
2022/12/04 07:38:27;;;;;;;3.95;2.40;;;;;;;3.03;86.92;102780.13;4955788;28;20038;-81
2022/12/04 07:40:55;;;;;;;3.65;2.40;;;;;;;3.17;87.06;102805.94;4940205;28;20489;-81
2022/12/04 07:43:21;;;;;;;4.22;3.78;;;;;;;2.98;86.79;102781.75;4939875;28;20057;-81
2022/12/04 07:45:46;;;;;;;5.72;3.45;;;;;;;2.97;87.15;102772.38;4955401;28;20027;-81
2022/12/04 07:48:11;;;;;;;1.15;1.08;;;;;;;3.11;87.19;102796.47;4939723;28;20514;-81
2022/12/04 07:50:37;;;;;;;1.55;1.00;;;;;;;3.12;86.94;102790.50;4956052;28;20104;-81
2022/12/04 07:53:03;;;;;;;8.23;2.78;;;;;;;3.20;87.29;102794.91;4923989;28;20093;-81
2022/12/04 07:55:28;;;;;;;2.22;2.03;;;;;;;3.08;87.14;102786.19;4939786;28;20424;-81
2022/12/04 07:57:53;;;;;;;3.30;2.22;;;;;;;3.19;86.67;102805.97;4939816;28;20031;-81
2022/12/04 08:00:19;;;;;;;3.05;2.70;;;;;;;3.12;86.60;102805.00;4939336;28;20183;-80
2022/12/04 08:02:45;;;;;;;8.00;4.07;;;;;;;3.16;86.85;102807.66;4939319;28;20035;-81
2022/12/04 08:05:10;;;;;;;5.85;2.30;;;;;;;2.99;86.79;102786.03;4939800;28;20103;-81
2022/12/04 08:07:36;;;;;;;7.38;2.95;;;;;;;3.08;87.53;102801.53;4939548;28;20037;-81
2022/12/04 08:10:01;;;;;;;5.20;2.67;;;;;;;2.97;87.61;102790.28;4923565;28;20034;-81
2022/12/04 08:12:26;;;;;;;5.25;2.65;;;;;;;3.10;87.92;102804.97;4938634;28;20493;-81
2022/12/04 08:14:52;;;;;;;9.82;2.92;;;;;;;3.22;87.24;102811.97;4923333;28;20162;-81
2022/12/04 08:17:17;;;;;;;2.45;1.65;;;;;;;3.30;86.87;102807.00;4955340;28;20046;-81
2022/12/04 08:19:43;;;;;;;2.70;2.33;;;;;;;3.18;86.92;102789.75;4923528;28;20030;-81
2022/12/04 08:22:08;;;;;;;2.55;2.35;;;;;;;3.24;86.83;102804.31;4955121;28;20056;-81
2022/12/04 08:24:34;;;;;;;3.78;3.42;;;;;;;2.96;86.69;102750.19;4972459;28;20038;-81
2022/12/04 08:27:00;;;;;;;4.55;2.05;;;;;;;3.27;86.99;102786.50;4972133;28;20405;-81
2022/12/04 08:29:26;;;;;;;2.38;1.67;;;;;;;3.37;86.71;102788.34;4938503;28;20027;-81
2022/12/04 08:31:51;;;;;;;2.55;2.00;;;;;;;3.32;86.89;102792.53;4971995;28;20023;-81
2022/12/04 08:34:17;;;;;;;4.20;3.08;;;;;;;3.30;86.38;102796.75;4954942;28;20030;-81
2022/12/04 08:36:42;;;;;;;3.42;2.58;;;;;;;3.36;86.61;102791.75;4954983;28;20398;-80
2022/12/04 08:39:09;;;;;;;8.75;2.03;;;;;;;3.25;87.15;102793.28;4954970;28;20027;-80
2022/12/04 08:41:35;;;;;;;2.53;1.63;;;;;;;3.29;86.91;102792.50;4939128;28;20077;-81
2022/12/04 08:44:00;;;;;;;5.13;3.03;;;;;;;3.34;87.16;102790.84;4954660;28;20035;-81
2022/12/04 08:46:26;;;;;;;1.70;1.60;;;;;;;3.30;87.48;102782.28;4939139;28;20042;-81
2022/12/04 08:48:52;;;;;;;2.72;2.08;;;;;;;3.25;87.46;102757.47;4923100;28;20046;-81
2022/12/04 08:51:19;;;;;;;11.20;3.42;;;;;;;3.22;87.78;102767.63;4938943;28;20477;-81
2022/12/04 08:53:45;;;;;;;2.42;1.63;;;;;;;3.28;87.96;102783.94;4939040;28;20038;-81
2022/12/04 08:56:11;;;;;;;2.97;1.92;;;;;;;3.28;87.51;102770.31;4954616;28;21059;-81
2022/12/04 08:58:36;;;;;;;4.07;3.00;;;;;;;3.19;87.96;102765.91;4954394;28;20484;-81
2022/12/04 09:01:06;;;;;;;6.03;3.03;;;;;;;3.33;87.45;102786.56;4938590;28;20027;-81
2022/12/04 09:03:31;;;;;;;2.33;1.83;;;;;;;3.36;87.71;102771.28;4938691;28;20031;-81
2022/12/04 09:05:58;;;;;;;4.53;2.47;;;;;;;3.24;87.59;102746.34;4938819;28;20050;-81
2022/12/04 09:08:24;;;;;;;4.13;3.22;;;;;;;3.30;87.92;102776.28;4938992;28;20417;-81
2022/12/04 09:10:49;;;;;;;8.77;3.20;;;;;;;3.29;87.91;102784.81;4938729;28;20480;-81
2022/12/04 09:13:15;;;;;;;13.95;4.25;;;;;;;3.27;87.74;102771.16;4922556;28;20050;-81
2022/12/04 09:15:40;;;;;;;3.22;2.92;;;;;;;3.23;87.93;102769.34;4938635;28;20529;-81
2022/12/04 09:18:06;;;;;;;7.55;2.55;;;;;;;3.10;87.92;102743.59;4938708;28;20047;-81
2022/12/04 09:20:32;;;;;;;13.13;2.17;;;;;;;3.26;87.74;102754.94;4938680;28;20440;-81
2022/12/04 09:22:57;;;;;;;5.32;3.67;;;;;;;3.18;88.36;102733.50;4938586;28;20077;-81
2022/12/04 09:25:23;;;;;;;4.20;2.55;;;;;;;3.41;87.68;102764.53;4925899;28;20412;-81
2022/12/04 09:27:48;;;;;;;3.88;3.03;;;;;;;3.41;87.86;102760.25;4926208;28;20026;-81
2022/12/04 09:30:14;;;;;;;18.85;3.40;;;;;;;3.42;87.28;102750.88;4958174;28;20111;-81
2022/12/04 09:32:39;;;;;;;3.13;2.65;;;;;;;3.28;87.69;102707.22;4942198;28;20037;-81
2022/12/04 09:35:05;;;;;;;4.85;3.08;;;;;;;3.32;87.44;102720.91;4926472;28;20035;-81
2022/12/04 09:37:35;;;;;;;3.45;2.90;;;;;;;3.46;87.61;102747.56;4942157;28;20026;-81
2022/12/04 09:40:02;;;;;;;5.68;3.90;;;;;;;3.43;87.09;102752.59;4942650;28;20027;-80
2022/12/04 09:42:45;;;;;;;3.83;2.38;;;;;;;3.30;87.50;102749.00;4941750;28;20043;-81
2022/12/04 09:45:18;;;;;;;4.20;2.88;;;;;;;3.29;87.76;102744.75;4942355;28;20408;-81
2022/12/04 09:47:51;;;;;;;3.55;2.50;;;;;;;3.44;87.36;102738.97;4957933;28;20101;-81
2022/12/04 09:50:25;;;;;;;5.35;3.55;;;;;;;3.36;87.28;102740.59;4942893;28;20031;-81
2022/12/04 09:52:55;;;;;;;3.33;2.42;;;;;;;3.23;87.61;102734.41;4926297;28;20031;-81
2022/12/04 09:55:39;;;;;;;5.18;2.90;;;;;;;3.15;88.14;102706.19;4957876;28;20031;-81
2022/12/04 09:58:06;;;;;;;1.25;0.88;;;;;;;3.21;88.34;102699.41;4942251;28;20416;-81
2022/12/04 10:00:32;;;;;;;3.60;3.28;;;;;;;3.36;88.08;102722.69;4926043;28;20029;-81
2022/12/04 10:03:00;;;;;;;7.97;4.70;;;;;;;3.20;87.88;102707.94;4941732;28;20137;-81
2022/12/04 10:05:41;;;;;;;6.63;2.97;;;;;;;3.37;87.81;102726.94;4925986;28;20035;-82
2022/12/04 10:08:30;;;;;;;4.43;3.03;;;;;;;3.30;88.20;102714.91;4941710;28;20485;-81
2022/12/04 10:11:02;;;;;;;2.42;2.17;;;;;;;3.43;88.11;102720.19;4943771;28;20600;-81
2022/12/04 10:14:06;;;;;;;5.53;3.85;;;;;;;3.35;87.72;102698.78;4941607;28;20448;-81
2022/12/04 10:16:51;;;;;;;4.00;3.63;;;;;;;3.41;87.81;102706.53;4934707;28;20066;-81
2022/12/04 10:19:58;;;;;;;4.00;3.00;;;;;;;3.45;87.49;102689.53;4974291;28;20085;-81
2022/12/04 10:22:38;;;;;;;4.55;3.05;;;;;;;3.31;87.61;102665.44;4941873;28;20050;-81
2022/12/04 10:25:10;;;;;;;4.18;2.67;;;;;;;3.49;87.38;102695.53;4941700;28;20027;-80
2022/12/04 10:27:48;;;;;;;;;;;;;;;3.50;87.46;102685.31;4941407;28;20031;-81
2022/12/04 10:30:25;;;;;;;2.33;2.03;;;;;;;3.44;87.88;102692.91;4957217;28;19914;-81
2022/12/04 10:33:16;;;;;;;2.95;2.72;;;;;;;3.22;87.61;102655.09;4957340;28;20098;-80
2022/12/04 10:35:42;;;;;;;6.85;3.85;;;;;;;3.23;87.22;102651.69;4941406;28;20033;-81
2022/12/04 10:38:37;;;;;;;3.17;1.88;;;;;;;3.47;87.20;102682.75;4925396;28;20038;-81
2022/12/04 10:41:42;;;;;;;5.07;2.92;;;;;;;3.50;87.24;102682.78;4924862;28;20050;-81
2022/12/04 10:44:12;;;;;;;3.42;2.55;;;;;;;3.36;86.90;102674.06;4957113;28;20038;-82
2022/12/04 10:46:37;;;;;;;5.88;3.47;;;;;;;3.40;86.73;102670.69;4925433;28;20081;-81
2022/12/04 10:49:08;;;;;;;6.05;4.32;;;;;;;3.30;87.11;102653.50;4925097;28;20497;-81
2022/12/04 10:51:41;;;;;;;9.77;6.22;;;;;;;3.42;86.85;102686.91;4942085;28;20035;-81
2022/12/04 10:54:18;;;;;;;5.18;3.65;;;;;;;3.40;86.83;102675.81;4924792;28;20023;-80
2022/12/04 10:56:54;;;;;;;5.63;4.18;;;;;;;3.48;87.36;102671.66;4957065;28;20539;-81
2022/12/04 10:59:20;;;;;;;5.45;4.85;;;;;;;3.55;87.62;102670.91;4941162;28;20101;-80
2022/12/04 11:01:45;;;;;;;5.20;4.15;;;;;;;3.47;87.20;102654.59;4941083;28;20086;-81
2022/12/04 11:04:37;;;;;;;8.88;4.60;;;;;;;3.63;86.69;102659.03;4940998;28;20082;-81
2022/12/04 11:07:07;;;;;;;5.50;4.40;;;;;;;3.63;86.20;102656.47;4952605;28;20065;-81
2022/12/04 11:09:33;;;;;;;10.20;5.00;;;;;;;3.38;85.89;102631.44;4940547;28;20031;-81
2022/12/04 11:12:28;;;;;;;3.60;2.30;;;;;;;3.65;86.59;102666.75;4924890;28;20089;-81
2022/12/04 11:15:00;;;;;;;5.03;3.53;;;;;;;3.58;86.11;102634.25;4939857;28;20416;-81
2022/12/04 11:17:26;;;;;;;3.67;2.75;;;;;;;3.58;85.94;102645.34;4956286;28;20053;-81
2022/12/04 11:20:03;;;;;;;3.92;2.30;;;;;;;3.44;85.66;102605.91;4940723;28;20109;-81
2022/12/04 11:22:29;;;;;;;4.82;2.72;;;;;;;3.59;85.29;102631.69;4955770;28;20475;-81
2022/12/04 11:24:55;;;;;;;5.50;3.33;;;;;;;3.62;85.71;102636.00;4924440;28;20035;-82
2022/12/04 11:27:32;;;;;;;5.63;2.30;;;;;;;3.67;86.05;102653.13;4940308;28;20049;-81
2022/12/04 11:30:02;;;;;;;3.83;3.45;;;;;;;3.59;86.12;102633.41;4940517;28;20110;-81
2022/12/04 11:32:29;;;;;;;3.75;3.20;;;;;;;3.60;86.40;102628.28;4924534;28;20041;-81
2022/12/04 11:34:57;;;;;;;3.08;2.10;;;;;;;3.74;85.83;102656.63;4956582;28;20035;-81
2022/12/04 11:37:25;;;;;;;3.58;2.65;;;;;;;3.69;86.27;102641.22;4939812;28;20532;-81
2022/12/04 11:39:51;;;;;;;4.20;3.88;;;;;;;3.59;85.88;102621.47;4956058;28;20081;-82
2022/12/04 11:42:27;;;;;;;9.27;3.55;;;;;;;3.74;86.28;102644.69;4924090;28;20027;-81
2022/12/04 11:44:54;;;;;;;9.20;5.43;;;;;;;3.79;86.34;102634.50;4939811;28;20038;-80
2022/12/04 11:47:20;;;;;;;12.90;4.07;;;;;;;3.81;86.46;102640.47;4939715;28;20416;-81
2022/12/04 11:50:02;;;;;;;3.10;2.75;;;;;;;3.72;86.00;102623.31;4939995;28;20416;-81
2022/12/04 11:53:06;;;;;;;6.88;3.95;;;;;;;3.82;86.83;102647.31;4940404;28;20401;-81
2022/12/04 11:55:37;;;;;;;9.45;4.05;;;;;;;3.73;86.62;102621.59;4973297;28;20789;-81
2022/12/04 11:58:30;;;;;;;9.65;5.00;;;;;;;3.82;85.80;102615.72;4940133;28;20523;-81
2022/12/04 12:01:33;;;;;;;3.78;2.42;;;;;;;3.90;86.30;102637.16;4955325;28;20035;-81